createdAt,value
2017-10-01T00:00:07.249Z,0
2017-10-01T00:00:47.754Z,0
2017-10-01T00:01:28.289Z,0
2017-10-01T00:02:08.829Z,0
2017-10-01T00:02:49.353Z,0
2017-10-01T00:03:29.879Z,0
2017-10-01T00:04:10.404Z,0
2017-10-01T00:04:50.933Z,0
2017-10-01T00:05:31.466Z,0
2017-10-01T00:06:12.007Z,0
2017-10-01T00:06:52.551Z,0
2017-10-01T00:07:33.100Z,0
2017-10-01T00:08:13.632Z,0
2017-10-01T00:08:54.169Z,0
2017-10-01T00:09:34.685Z,0
2017-10-01T00:10:15.218Z,0
2017-10-01T00:10:55.756Z,0
2017-10-01T00:11:36.285Z,0
2017-10-01T00:12:16.803Z,0
2017-10-01T00:12:57.392Z,0
2017-10-01T00:13:37.898Z,0
2017-10-01T00:14:18.438Z,0
2017-10-01T00:14:58.976Z,0
2017-10-01T00:15:39.491Z,0
2017-10-01T00:16:20.013Z,0
2017-10-01T00:17:00.553Z,0
2017-10-01T00:17:41.082Z,0
2017-10-01T00:18:21.655Z,0
2017-10-01T00:19:02.166Z,0
2017-10-01T00:19:42.677Z,0
2017-10-01T00:20:23.215Z,0
2017-10-01T00:21:03.739Z,0
2017-10-01T00:21:44.265Z,0
2017-10-01T00:22:24.768Z,0
2017-10-01T00:23:05.298Z,0
2017-10-01T00:23:45.844Z,0
2017-10-01T00:24:26.366Z,0
2017-10-01T00:25:06.894Z,0
2017-10-01T00:25:47.409Z,0
2017-10-01T00:26:27.947Z,0
2017-10-01T00:27:08.487Z,0
2017-10-01T00:27:49.017Z,0
2017-10-01T00:28:29.534Z,0
2017-10-01T00:29:10.063Z,0
2017-10-01T00:29:50.597Z,0
2017-10-01T00:30:31.129Z,0
2017-10-01T00:31:11.662Z,0
2017-10-01T00:31:52.167Z,0
2017-10-01T00:32:32.690Z,0
2017-10-01T00:33:13.234Z,0
2017-10-01T00:33:53.725Z,0
2017-10-01T00:34:34.253Z,0
2017-10-01T00:35:14.785Z,0
2017-10-01T00:35:55.322Z,0
2017-10-01T00:36:35.857Z,0
2017-10-01T00:37:16.384Z,0
2017-10-01T00:37:56.905Z,0
2017-10-01T00:38:37.451Z,0
2017-10-01T00:39:17.983Z,0
2017-10-01T00:39:58.500Z,0
2017-10-01T00:40:39.021Z,0
2017-10-01T00:41:19.554Z,0
2017-10-01T00:42:00.081Z,0
2017-10-01T00:42:40.639Z,0
2017-10-01T00:43:21.139Z,0
2017-10-01T00:44:01.665Z,0
2017-10-01T00:44:42.205Z,0
2017-10-01T00:45:22.740Z,0
2017-10-01T00:46:03.274Z,0
2017-10-01T00:46:43.803Z,0
2017-10-01T00:47:24.324Z,0
2017-10-01T00:48:04.858Z,0
2017-10-01T00:48:45.398Z,0
2017-10-01T00:49:25.927Z,0
2017-10-01T00:50:06.423Z,0
2017-10-01T00:50:46.963Z,0
2017-10-01T00:51:27.488Z,0
2017-10-01T00:52:08.057Z,0
2017-10-01T00:52:48.588Z,0
2017-10-01T00:53:29.128Z,0
2017-10-01T00:54:09.661Z,0
2017-10-01T00:54:50.201Z,0
2017-10-01T00:55:30.734Z,0
2017-10-01T00:56:11.254Z,0
2017-10-01T00:56:51.785Z,0
2017-10-01T00:57:32.310Z,0
2017-10-01T00:58:12.851Z,0
2017-10-01T00:58:53.373Z,0
2017-10-01T00:59:33.898Z,0
2017-10-01T01:00:14.442Z,0
2017-10-01T01:00:54.967Z,0
2017-10-01T01:01:35.493Z,0
2017-10-01T01:02:16.000Z,0
2017-10-01T01:02:56.533Z,0
2017-10-01T01:03:37.039Z,0
2017-10-01T01:04:17.570Z,0
2017-10-01T01:04:58.097Z,0
2017-10-01T01:05:38.621Z,0
2017-10-01T01:06:19.149Z,0
2017-10-01T01:06:59.678Z,0
2017-10-01T01:07:40.227Z,0
2017-10-01T01:08:20.750Z,0
2017-10-01T01:09:01.271Z,0
2017-10-01T01:09:41.794Z,0
2017-10-01T01:10:22.325Z,0
2017-10-01T01:11:02.839Z,0
2017-10-01T01:11:43.383Z,0
2017-10-01T01:12:23.897Z,0
2017-10-01T01:13:04.494Z,0
2017-10-01T01:13:45.030Z,0
2017-10-01T01:14:25.553Z,0
2017-10-01T01:15:06.082Z,0
2017-10-01T01:15:46.605Z,0
2017-10-01T01:16:27.138Z,0
2017-10-01T01:17:07.675Z,0
2017-10-01T01:17:48.198Z,0
2017-10-01T01:18:28.729Z,0
2017-10-01T01:19:09.257Z,0
2017-10-01T01:19:49.833Z,0
2017-10-01T01:20:30.370Z,0
2017-10-01T01:21:10.878Z,0
2017-10-01T01:21:51.407Z,0
2017-10-01T01:22:31.932Z,0
2017-10-01T01:23:12.464Z,0
2017-10-01T01:23:52.992Z,0
2017-10-01T01:24:33.514Z,0
2017-10-01T01:25:14.047Z,0
2017-10-01T01:25:54.581Z,0
2017-10-01T01:26:35.101Z,0
2017-10-01T01:27:15.638Z,0
2017-10-01T01:27:56.133Z,0
2017-10-01T01:28:36.670Z,0
2017-10-01T01:29:17.185Z,0
2017-10-01T01:29:57.712Z,0
2017-10-01T01:30:38.252Z,0
2017-10-01T01:31:18.781Z,0
2017-10-01T01:31:59.297Z,0
2017-10-01T01:32:39.831Z,0
2017-10-01T01:33:20.349Z,0
2017-10-01T01:34:00.875Z,0
2017-10-01T01:34:41.365Z,0
2017-10-01T01:35:21.896Z,0
2017-10-01T01:36:02.425Z,0
2017-10-01T01:36:42.971Z,0
2017-10-01T01:37:23.499Z,0
2017-10-01T01:38:04.010Z,0
2017-10-01T01:38:44.552Z,0
2017-10-01T01:39:25.064Z,0
2017-10-01T01:40:05.592Z,0
2017-10-01T01:40:46.118Z,0
2017-10-01T01:41:26.649Z,0
2017-10-01T01:42:07.188Z,0
2017-10-01T01:42:47.721Z,0
2017-10-01T01:43:28.256Z,0
2017-10-01T01:44:08.776Z,0
2017-10-01T01:44:49.306Z,0
2017-10-01T01:45:29.834Z,0
2017-10-01T01:46:10.378Z,0
2017-10-01T01:46:50.903Z,0
2017-10-01T01:47:31.457Z,0
2017-10-01T01:48:11.961Z,0
2017-10-01T01:48:52.504Z,0
2017-10-01T01:49:33.044Z,0
2017-10-01T01:50:13.585Z,0
2017-10-01T01:50:54.160Z,0
2017-10-01T01:51:34.696Z,0
2017-10-01T01:52:15.226Z,0
2017-10-01T01:52:55.749Z,0
2017-10-01T01:53:36.287Z,0
2017-10-01T01:54:16.821Z,0
2017-10-01T01:54:57.364Z,0
2017-10-01T01:55:37.887Z,0
2017-10-01T01:56:18.417Z,0
2017-10-01T01:56:58.944Z,0
2017-10-01T01:57:39.479Z,0
2017-10-01T01:58:20.001Z,0
2017-10-01T01:59:00.542Z,0
2017-10-01T01:59:41.069Z,0
2017-10-01T02:00:21.611Z,0
2017-10-01T02:01:02.127Z,0
2017-10-01T02:01:42.655Z,0
2017-10-01T02:02:23.167Z,0
2017-10-01T02:03:03.706Z,0
2017-10-01T02:03:44.227Z,0
2017-10-01T02:04:24.759Z,0
2017-10-01T02:05:05.296Z,0
2017-10-01T02:05:45.818Z,0
2017-10-01T02:06:26.353Z,0
2017-10-01T02:07:06.880Z,0
2017-10-01T02:07:47.413Z,0
2017-10-01T02:08:27.943Z,0
2017-10-01T02:09:08.471Z,0
2017-10-01T02:09:49.005Z,0
2017-10-01T02:10:29.521Z,0
2017-10-01T02:11:10.048Z,0
2017-10-01T02:11:50.578Z,0
2017-10-01T02:12:31.122Z,0
2017-10-01T02:13:11.659Z,0
2017-10-01T02:13:52.182Z,0
2017-10-01T02:14:32.721Z,0
2017-10-01T02:15:13.289Z,0
2017-10-01T02:15:53.818Z,0
2017-10-01T02:16:34.342Z,0
2017-10-01T02:17:14.877Z,0
2017-10-01T02:17:55.425Z,0
2017-10-01T02:18:35.964Z,0
2017-10-01T02:19:16.489Z,0
2017-10-01T02:19:57.020Z,0
2017-10-01T02:20:37.565Z,0
2017-10-01T02:21:18.081Z,0
2017-10-01T02:21:58.594Z,0
2017-10-01T02:22:39.122Z,0
2017-10-01T02:23:19.635Z,0
2017-10-01T02:24:00.169Z,0
2017-10-01T02:24:40.690Z,0
2017-10-01T02:25:21.217Z,0
2017-10-01T02:26:01.738Z,0
2017-10-01T02:26:42.265Z,0
2017-10-01T02:27:22.780Z,0
2017-10-01T02:28:03.309Z,0
2017-10-01T02:28:43.804Z,0
2017-10-01T02:29:24.327Z,0
2017-10-01T02:30:04.848Z,0
2017-10-01T02:30:45.363Z,0
2017-10-01T02:31:25.885Z,0
2017-10-01T02:32:06.423Z,0
2017-10-01T02:32:46.950Z,0
2017-10-01T02:33:27.494Z,0
2017-10-01T02:34:08.023Z,0
2017-10-01T02:34:48.555Z,0
2017-10-01T02:35:29.083Z,0
2017-10-01T02:36:09.596Z,0
2017-10-01T02:36:50.152Z,0
2017-10-01T02:37:30.675Z,0
2017-10-01T02:38:11.185Z,0
2017-10-01T02:38:51.710Z,0
2017-10-01T02:39:32.243Z,0
2017-10-01T02:40:12.776Z,0
2017-10-01T02:40:53.321Z,0
2017-10-01T02:41:33.847Z,0
2017-10-01T02:42:14.377Z,0
2017-10-01T02:42:54.902Z,0
2017-10-01T02:43:35.420Z,0
2017-10-01T02:44:15.982Z,0
2017-10-01T02:44:56.493Z,0
2017-10-01T02:45:37.031Z,0
2017-10-01T02:46:17.585Z,0
2017-10-01T02:46:58.104Z,0
2017-10-01T02:47:38.632Z,0
2017-10-01T02:48:19.192Z,0
2017-10-01T02:48:59.680Z,0
2017-10-01T02:49:40.196Z,0
2017-10-01T02:50:20.705Z,0
2017-10-01T02:51:01.232Z,0
2017-10-01T02:51:41.756Z,0
2017-10-01T02:52:22.294Z,0
2017-10-01T02:53:02.801Z,0
2017-10-01T02:53:43.332Z,0
2017-10-01T02:54:23.857Z,0
2017-10-01T02:55:04.397Z,0
2017-10-01T02:55:44.937Z,0
2017-10-01T02:56:25.449Z,0
2017-10-01T02:57:06.006Z,0
2017-10-01T02:57:46.535Z,0
2017-10-01T02:58:27.070Z,0
2017-10-01T02:59:07.583Z,0
2017-10-01T02:59:48.107Z,0
2017-10-01T03:00:28.637Z,0
2017-10-01T03:01:09.158Z,0
2017-10-01T03:01:49.687Z,0
2017-10-01T03:02:30.223Z,0
2017-10-01T03:03:10.771Z,0
2017-10-01T03:03:51.258Z,0
2017-10-01T03:04:31.785Z,0
2017-10-01T03:05:12.303Z,0
2017-10-01T03:05:52.837Z,0
2017-10-01T03:06:33.369Z,0
2017-10-01T03:07:13.904Z,0
2017-10-01T03:07:54.418Z,0
2017-10-01T03:08:34.942Z,0
2017-10-01T03:09:15.471Z,0
2017-10-01T03:09:55.997Z,0
2017-10-01T03:10:36.527Z,0
2017-10-01T03:11:17.064Z,0
2017-10-01T03:11:57.707Z,0
2017-10-01T03:12:38.228Z,0
2017-10-01T03:13:18.761Z,0
2017-10-01T03:13:59.270Z,0
2017-10-01T03:14:39.806Z,0
2017-10-01T03:15:20.343Z,0
2017-10-01T03:16:00.888Z,0
2017-10-01T03:16:41.376Z,0
2017-10-01T03:17:21.896Z,0
2017-10-01T03:18:02.420Z,0
2017-10-01T03:18:42.951Z,0
2017-10-01T03:19:23.470Z,0
2017-10-01T03:20:03.999Z,0
2017-10-01T03:20:44.532Z,0
2017-10-01T03:21:25.059Z,0
2017-10-01T03:22:05.573Z,0
2017-10-01T03:22:46.105Z,0
2017-10-01T03:23:26.646Z,0
2017-10-01T03:24:07.181Z,0
2017-10-01T03:24:47.704Z,0
2017-10-01T03:25:28.244Z,0
2017-10-01T03:26:08.760Z,0
2017-10-01T03:26:49.301Z,0
2017-10-01T03:27:29.848Z,0
2017-10-01T03:28:10.392Z,0
2017-10-01T03:28:50.898Z,0
2017-10-01T03:29:31.430Z,0
2017-10-01T03:30:11.963Z,0
2017-10-01T03:30:52.485Z,0
2017-10-01T03:31:32.998Z,0
2017-10-01T03:32:13.530Z,0
2017-10-01T03:32:54.065Z,0
2017-10-01T03:33:34.596Z,0
2017-10-01T03:34:15.114Z,0
2017-10-01T03:34:55.631Z,0
2017-10-01T03:35:36.160Z,0
2017-10-01T03:36:16.696Z,0
2017-10-01T03:36:57.228Z,0
2017-10-01T03:37:37.740Z,0
2017-10-01T03:38:18.262Z,0
2017-10-01T03:38:58.783Z,0
2017-10-01T03:39:39.302Z,0
2017-10-01T03:40:19.830Z,0
2017-10-01T03:41:00.330Z,0
2017-10-01T03:41:40.851Z,0
2017-10-01T03:42:21.411Z,0
2017-10-01T03:43:01.943Z,0
2017-10-01T03:43:42.505Z,0
2017-10-01T03:44:23.035Z,0
2017-10-01T03:45:03.571Z,0
2017-10-01T03:45:44.094Z,0
2017-10-01T03:46:24.616Z,0
2017-10-01T03:47:05.163Z,0
2017-10-01T03:47:45.690Z,0
2017-10-01T03:48:26.226Z,0
2017-10-01T03:49:06.762Z,0
2017-10-01T03:49:47.296Z,0
2017-10-01T03:50:27.798Z,0
2017-10-01T03:51:08.324Z,0
2017-10-01T03:51:48.859Z,0
2017-10-01T03:52:29.390Z,0
2017-10-01T03:53:09.929Z,0
2017-10-01T03:53:50.444Z,0
2017-10-01T03:54:30.956Z,0
2017-10-01T03:55:11.485Z,0
2017-10-01T03:55:51.987Z,0
2017-10-01T03:56:32.523Z,0
2017-10-01T03:57:13.066Z,0
2017-10-01T03:57:53.603Z,0
2017-10-01T03:58:34.134Z,0
2017-10-01T03:59:14.687Z,0
2017-10-01T03:59:55.196Z,0
2017-10-01T04:00:35.736Z,0
2017-10-01T04:01:16.260Z,0
2017-10-01T04:01:56.796Z,0
2017-10-01T04:02:37.329Z,0
2017-10-01T04:03:17.857Z,0
2017-10-01T04:03:58.387Z,0
2017-10-01T04:04:38.925Z,0
2017-10-01T04:05:19.468Z,0
2017-10-01T04:05:59.985Z,0
2017-10-01T04:06:40.504Z,0
2017-10-01T04:07:21.039Z,0
2017-10-01T04:08:01.570Z,0
2017-10-01T04:08:42.109Z,0
2017-10-01T04:09:22.620Z,0
2017-10-01T04:10:03.147Z,0
2017-10-01T04:10:43.679Z,0
2017-10-01T04:11:24.188Z,0
2017-10-01T04:12:04.724Z,0
2017-10-01T04:12:45.241Z,0
2017-10-01T04:13:25.770Z,0
2017-10-01T04:14:06.310Z,0
2017-10-01T04:14:46.843Z,0
2017-10-01T04:15:27.373Z,0
2017-10-01T04:16:07.915Z,0
2017-10-01T04:16:48.449Z,0
2017-10-01T04:17:28.981Z,0
2017-10-01T04:18:09.497Z,0
2017-10-01T04:18:50.046Z,0
2017-10-01T04:19:30.606Z,0
2017-10-01T04:20:11.144Z,0
2017-10-01T04:20:51.662Z,0
2017-10-01T04:21:32.196Z,0
2017-10-01T04:22:12.735Z,0
2017-10-01T04:22:53.255Z,0
2017-10-01T04:23:33.792Z,0
2017-10-01T04:24:14.280Z,0
2017-10-01T04:24:54.812Z,0
2017-10-01T04:25:35.332Z,0
2017-10-01T04:26:15.859Z,0
2017-10-01T04:26:56.396Z,0
2017-10-01T04:27:36.923Z,0
2017-10-01T04:28:17.446Z,0
2017-10-01T04:28:57.996Z,0
2017-10-01T04:29:38.503Z,0
2017-10-01T04:30:19.073Z,0
2017-10-01T04:30:59.609Z,0
2017-10-01T04:31:40.111Z,0
2017-10-01T04:32:20.633Z,0
2017-10-01T04:33:01.161Z,0
2017-10-01T04:33:41.695Z,0
2017-10-01T04:34:22.220Z,0
2017-10-01T04:35:02.744Z,0
2017-10-01T04:35:43.265Z,0
2017-10-01T04:36:23.790Z,0
2017-10-01T04:37:04.321Z,0
2017-10-01T04:37:44.856Z,0
2017-10-01T04:38:25.363Z,0
2017-10-01T04:39:05.905Z,0
2017-10-01T04:39:46.434Z,0
2017-10-01T04:40:26.956Z,0
2017-10-01T04:41:07.480Z,0
2017-10-01T04:41:48.004Z,0
2017-10-01T04:42:28.555Z,0
2017-10-01T04:43:09.085Z,0
2017-10-01T04:43:49.599Z,0
2017-10-01T04:44:30.131Z,0
2017-10-01T04:45:10.644Z,0
2017-10-01T04:45:51.184Z,0
2017-10-01T04:46:31.718Z,0
2017-10-01T04:47:12.266Z,0
2017-10-01T04:47:52.907Z,0
2017-10-01T04:48:33.429Z,0
2017-10-01T04:49:13.951Z,0
2017-10-01T04:49:54.494Z,0
2017-10-01T04:50:35.004Z,0
2017-10-01T04:51:15.525Z,0
2017-10-01T04:51:56.061Z,0
2017-10-01T04:52:36.585Z,0
2017-10-01T04:53:17.121Z,0
2017-10-01T04:53:57.637Z,0
2017-10-01T04:54:38.154Z,0
2017-10-01T04:55:18.682Z,0
2017-10-01T04:55:59.222Z,0
2017-10-01T04:56:39.750Z,0
2017-10-01T04:57:20.282Z,0
2017-10-01T04:58:00.811Z,0
2017-10-01T04:58:41.326Z,0
2017-10-01T04:59:21.848Z,0
2017-10-01T05:00:02.372Z,0
2017-10-01T05:00:42.936Z,0
2017-10-01T05:01:23.465Z,0
2017-10-01T05:02:03.993Z,0
2017-10-01T05:02:44.514Z,0
2017-10-01T05:03:25.052Z,0
2017-10-01T05:04:05.552Z,0
2017-10-01T05:04:46.091Z,0
2017-10-01T05:05:26.607Z,0
2017-10-01T05:06:07.159Z,0
2017-10-01T05:06:47.678Z,0
2017-10-01T05:07:28.202Z,0
2017-10-01T05:08:08.729Z,4
2017-10-01T05:08:49.253Z,4
2017-10-01T05:09:29.779Z,4
2017-10-01T05:10:10.309Z,4
2017-10-01T05:10:50.834Z,4
2017-10-01T05:11:31.349Z,4
2017-10-01T05:12:11.948Z,4
2017-10-01T05:12:52.505Z,8
2017-10-01T05:13:33.031Z,4
2017-10-01T05:14:13.579Z,8
2017-10-01T05:14:54.085Z,8
2017-10-01T05:15:34.629Z,8
2017-10-01T05:16:15.179Z,12
2017-10-01T05:16:55.708Z,12
2017-10-01T05:17:36.239Z,12
2017-10-01T05:18:16.783Z,16
2017-10-01T05:18:57.317Z,16
2017-10-01T05:19:37.835Z,16
2017-10-01T05:20:18.372Z,20
2017-10-01T05:20:58.911Z,20
2017-10-01T05:21:39.505Z,24
2017-10-01T05:22:20.037Z,28
2017-10-01T05:23:00.577Z,28
2017-10-01T05:23:41.074Z,32
2017-10-01T05:24:21.604Z,36
2017-10-01T05:25:02.130Z,36
2017-10-01T05:25:42.723Z,44
2017-10-01T05:26:23.249Z,44
2017-10-01T05:27:03.775Z,52
2017-10-01T05:27:44.301Z,52
2017-10-01T05:28:24.896Z,60
2017-10-01T05:29:05.497Z,64
2017-10-01T05:29:46.041Z,68
2017-10-01T05:30:26.543Z,72
2017-10-01T05:31:07.085Z,76
2017-10-01T05:31:47.589Z,84
2017-10-01T05:32:28.108Z,88
2017-10-01T05:33:08.678Z,92
2017-10-01T05:33:49.228Z,100
2017-10-01T05:34:29.753Z,104
2017-10-01T05:35:10.279Z,116
2017-10-01T05:35:50.814Z,124
2017-10-01T05:36:31.333Z,128
2017-10-01T05:37:11.948Z,136
2017-10-01T05:37:52.463Z,144
2017-10-01T05:38:33.008Z,148
2017-10-01T05:39:13.545Z,160
2017-10-01T05:39:54.086Z,168
2017-10-01T05:40:34.610Z,176
2017-10-01T05:41:15.142Z,184
2017-10-01T05:41:55.658Z,196
2017-10-01T05:42:36.204Z,204
2017-10-01T05:43:16.707Z,212
2017-10-01T05:43:57.244Z,224
2017-10-01T05:44:37.789Z,232
2017-10-01T05:45:18.302Z,244
2017-10-01T05:45:58.939Z,260
2017-10-01T05:46:39.470Z,276
2017-10-01T05:47:19.995Z,288
2017-10-01T05:48:00.528Z,304
2017-10-01T05:48:41.227Z,316
2017-10-01T05:49:21.915Z,336
2017-10-01T05:50:02.558Z,352
2017-10-01T05:50:43.081Z,372
2017-10-01T05:51:23.608Z,388
2017-10-01T05:52:04.134Z,408
2017-10-01T05:52:44.659Z,416
2017-10-01T05:53:25.204Z,424
2017-10-01T05:54:05.724Z,428
2017-10-01T05:54:46.249Z,436
2017-10-01T05:55:26.755Z,452
2017-10-01T05:56:07.273Z,464
2017-10-01T05:56:47.831Z,484
2017-10-01T05:57:28.364Z,496
2017-10-01T05:58:08.886Z,508
2017-10-01T05:58:49.412Z,520
2017-10-01T05:59:29.944Z,528
2017-10-01T06:00:10.514Z,544
2017-10-01T06:00:51.044Z,556
2017-10-01T06:01:31.591Z,572
2017-10-01T06:02:12.121Z,584
2017-10-01T06:02:52.656Z,604
2017-10-01T06:03:33.202Z,632
2017-10-01T06:05:47.577Z,728
2017-10-01T06:06:28.072Z,736
2017-10-01T06:07:08.709Z,740
2017-10-01T06:07:49.283Z,744
2017-10-01T06:08:30.107Z,748
2017-10-01T06:09:10.537Z,756
2017-10-01T06:09:51.044Z,764
2017-10-01T06:10:31.638Z,776
2017-10-01T06:11:12.188Z,784
2017-10-01T06:11:52.745Z,788
2017-10-01T06:12:33.297Z,788
2017-10-01T06:13:13.800Z,800
2017-10-01T06:13:54.430Z,812
2017-10-01T06:14:34.937Z,824
2017-10-01T06:15:15.466Z,840
2017-10-01T06:15:56.040Z,868
2017-10-01T06:16:36.586Z,888
2017-10-01T06:17:17.230Z,900
2017-10-01T06:17:57.761Z,916
2017-10-01T06:18:38.312Z,928
2017-10-01T06:19:18.847Z,964
2017-10-01T06:19:59.355Z,984
2017-10-01T06:20:39.860Z,988
2017-10-01T06:21:20.372Z,996
2017-10-01T06:22:00.874Z,1000
2017-10-01T06:22:41.364Z,988
2017-10-01T06:23:21.874Z,976
2017-10-01T06:24:02.787Z,980
2017-10-01T06:24:43.447Z,988
2017-10-01T06:25:23.946Z,1012
2017-10-01T06:26:04.542Z,1056
2017-10-01T06:26:45.063Z,1120
2017-10-01T06:27:25.697Z,1160
2017-10-01T06:28:06.203Z,1164
2017-10-01T06:28:46.716Z,1160
2017-10-01T06:29:27.219Z,1164
2017-10-01T06:30:07.726Z,1172
2017-10-01T06:30:48.239Z,1180
2017-10-01T06:31:28.772Z,1192
2017-10-01T06:32:09.293Z,1204
2017-10-01T06:32:49.811Z,1216
2017-10-01T06:33:30.328Z,1224
2017-10-01T06:34:10.869Z,1232
2017-10-01T06:34:51.370Z,1236
2017-10-01T06:35:31.882Z,1220
2017-10-01T06:36:12.386Z,1200
2017-10-01T06:36:52.877Z,1180
2017-10-01T06:37:33.396Z,1168
2017-10-01T06:38:13.903Z,1152
2017-10-01T06:38:54.445Z,1144
2017-10-01T06:39:34.932Z,1128
2017-10-01T06:40:15.439Z,1100
2017-10-01T06:40:56.002Z,1076
2017-10-01T06:41:37.284Z,1068
2017-10-01T06:42:17.808Z,1064
2017-10-01T06:42:58.605Z,1060
2017-10-01T06:43:39.361Z,1052
2017-10-01T06:44:20.178Z,1036
2017-10-01T06:45:00.807Z,1016
2017-10-01T06:45:41.628Z,1016
2017-10-01T06:46:22.152Z,1028
2017-10-01T06:47:02.834Z,1044
2017-10-01T06:47:43.664Z,1048
2017-10-01T06:48:24.521Z,1060
2017-10-01T06:49:05.387Z,1076
2017-10-01T06:49:45.978Z,1092
2017-10-01T06:50:26.724Z,1112
2017-10-01T06:51:07.665Z,1136
2017-10-01T06:51:48.660Z,1164
2017-10-01T06:52:29.355Z,1184
2017-10-01T06:53:10.247Z,1220
2017-10-01T06:53:50.851Z,1256
2017-10-01T06:54:31.339Z,1308
2017-10-01T06:55:11.873Z,1344
2017-10-01T06:55:52.430Z,1344
2017-10-01T06:56:32.928Z,1360
2017-10-01T06:57:13.437Z,1376
2017-10-01T06:57:53.924Z,1376
2017-10-01T06:58:34.454Z,1380
2017-10-01T06:59:14.945Z,1376
2017-10-01T06:59:55.457Z,1392
2017-10-01T07:00:35.990Z,1400
2017-10-01T07:01:16.512Z,1400
2017-10-01T07:01:57.053Z,1408
2017-10-01T07:02:37.568Z,1400
2017-10-01T07:03:18.095Z,1420
2017-10-01T07:03:58.606Z,1428
2017-10-01T07:04:39.085Z,1436
2017-10-01T07:05:19.617Z,1444
2017-10-01T07:06:00.157Z,1452
2017-10-01T07:06:40.668Z,1452
2017-10-01T07:07:21.182Z,1456
2017-10-01T07:08:01.697Z,1464
2017-10-01T07:08:42.215Z,1476
2017-10-01T07:09:22.739Z,1488
2017-10-01T07:10:03.246Z,1500
2017-10-01T07:10:43.790Z,1524
2017-10-01T07:11:24.313Z,1520
2017-10-01T07:12:04.829Z,1532
2017-10-01T07:12:45.352Z,1544
2017-10-01T07:13:25.841Z,1564
2017-10-01T07:14:06.352Z,1580
2017-10-01T07:14:46.906Z,1604
2017-10-01T07:15:27.411Z,1604
2017-10-01T07:16:07.974Z,1600
2017-10-01T07:16:48.486Z,1596
2017-10-01T07:17:28.986Z,1612
2017-10-01T07:18:09.511Z,1640
2017-10-01T07:18:50.011Z,1652
2017-10-01T07:19:30.546Z,1660
2017-10-01T07:20:11.112Z,1696
2017-10-01T07:20:51.605Z,1756
2017-10-01T07:21:32.126Z,1800
2017-10-01T07:22:12.634Z,1852
2017-10-01T07:22:53.146Z,1860
2017-10-01T07:23:33.640Z,1864
2017-10-01T07:24:14.175Z,1884
2017-10-01T07:24:54.679Z,1872
2017-10-01T07:25:35.230Z,1864
2017-10-01T07:26:15.690Z,1848
2017-10-01T07:26:56.221Z,1880
2017-10-01T07:27:36.747Z,1840
2017-10-01T07:28:17.272Z,1820
2017-10-01T07:28:57.800Z,1808
2017-10-01T07:29:38.333Z,1836
2017-10-01T07:30:18.846Z,1852
2017-10-01T07:30:59.411Z,1856
2017-10-01T07:31:39.916Z,1812
2017-10-01T07:32:20.445Z,1764
2017-10-01T07:33:01.000Z,1788
2017-10-01T07:33:41.521Z,1812
2017-10-01T07:34:22.105Z,1808
2017-10-01T07:35:02.627Z,1844
2017-10-01T07:35:43.139Z,1876
2017-10-01T07:36:23.647Z,1872
2017-10-01T07:38:37.870Z,1876
2017-10-01T07:39:18.418Z,1868
2017-10-01T07:39:58.908Z,1888
2017-10-01T07:40:39.455Z,1884
2017-10-01T07:41:19.973Z,1896
2017-10-01T07:42:00.480Z,1908
2017-10-01T07:42:41.015Z,1920
2017-10-01T07:43:21.551Z,1932
2017-10-01T07:44:02.065Z,1940
2017-10-01T07:44:42.593Z,1956
2017-10-01T07:45:23.108Z,1964
2017-10-01T07:46:03.633Z,1984
2017-10-01T07:46:44.178Z,1980
2017-10-01T07:47:24.679Z,1992
2017-10-01T07:48:05.202Z,1996
2017-10-01T07:48:45.751Z,2044
2017-10-01T07:49:26.302Z,2032
2017-10-01T07:50:06.817Z,2032
2017-10-01T07:50:47.360Z,2048
2017-10-01T07:51:27.869Z,2052
2017-10-01T07:52:08.398Z,2084
2017-10-01T07:52:48.924Z,2240
2017-10-01T07:53:29.454Z,2332
2017-10-01T07:54:10.014Z,2276
2017-10-01T07:54:50.520Z,2140
2017-10-01T07:55:31.053Z,2124
2017-10-01T07:56:11.557Z,2148
2017-10-01T07:56:52.168Z,2164
2017-10-01T07:57:32.723Z,2168
2017-10-01T07:58:13.228Z,2180
2017-10-01T07:58:53.737Z,2204
2017-10-01T07:59:34.259Z,2236
2017-10-01T08:00:14.868Z,2228
2017-10-01T08:00:55.380Z,2228
2017-10-01T08:01:36.504Z,2240
2017-10-01T08:02:17.334Z,2284
2017-10-01T08:02:58.031Z,2320
2017-10-01T08:03:38.551Z,2308
2017-10-01T08:04:19.086Z,2320
2017-10-01T08:04:59.597Z,2404
2017-10-01T08:05:40.135Z,2396
2017-10-01T08:06:20.681Z,2420
2017-10-01T08:07:01.220Z,2492
2017-10-01T08:07:43.298Z,2880
2017-10-01T08:08:23.844Z,2760
2017-10-01T08:09:04.366Z,2460
2017-10-01T08:09:45.293Z,2472
2017-10-01T08:10:25.819Z,2484
2017-10-01T08:11:06.351Z,2472
2017-10-01T08:11:46.880Z,2448
2017-10-01T08:12:27.485Z,2404
2017-10-01T08:13:08.012Z,2420
2017-10-01T08:13:48.521Z,2456
2017-10-01T08:14:29.031Z,2452
2017-10-01T08:15:09.539Z,2472
2017-10-01T08:15:50.049Z,2496
2017-10-01T08:16:30.605Z,2472
2017-10-01T08:17:11.137Z,2484
2017-10-01T08:17:52.180Z,2484
2017-10-01T08:18:32.932Z,2468
2017-10-01T08:19:13.431Z,2496
2017-10-01T08:19:53.945Z,2524
2017-10-01T08:20:34.505Z,2560
2017-10-01T08:21:15.009Z,2592
2017-10-01T08:21:55.574Z,2596
2017-10-01T08:22:36.045Z,2588
2017-10-01T08:23:16.623Z,2620
2017-10-01T08:23:57.195Z,2640
2017-10-01T08:24:37.678Z,2656
2017-10-01T08:25:18.539Z,2660
2017-10-01T08:25:59.204Z,2664
2017-10-01T08:26:39.669Z,2668
2017-10-01T08:27:20.202Z,2684
2017-10-01T08:28:02.805Z,2720
2017-10-01T08:28:43.243Z,2740
2017-10-01T08:29:25.540Z,2744
2017-10-01T08:30:06.032Z,2748
2017-10-01T08:30:46.556Z,2756
2017-10-01T08:31:27.038Z,2760
2017-10-01T08:32:07.577Z,2788
2017-10-01T08:32:48.081Z,2804
2017-10-01T08:33:30.516Z,2832
2017-10-01T08:34:11.042Z,2884
2017-10-01T08:34:51.591Z,2872
2017-10-01T08:35:32.112Z,2856
2017-10-01T08:36:12.616Z,2876
2017-10-01T08:36:53.138Z,2872
2017-10-01T08:37:33.652Z,2896
2017-10-01T08:38:14.162Z,2912
2017-10-01T08:38:54.701Z,2932
2017-10-01T08:39:35.223Z,3040
2017-10-01T08:40:15.779Z,3068
2017-10-01T08:40:56.297Z,3032
2017-10-01T08:41:36.834Z,3008
2017-10-01T08:42:17.370Z,3032
2017-10-01T08:42:57.921Z,3064
2017-10-01T08:43:38.444Z,3380
2017-10-01T08:44:19.003Z,3616
2017-10-01T08:45:03.450Z,3728
2017-10-01T08:45:45.474Z,4124
2017-10-01T08:46:25.989Z,5128
2017-10-01T08:47:06.545Z,6952
2017-10-01T08:47:47.161Z,8132
2017-10-01T08:48:27.648Z,10480
2017-10-01T08:49:08.204Z,10928
2017-10-01T08:49:48.712Z,11100
2017-10-01T08:50:29.237Z,8140
2017-10-01T08:51:09.735Z,5884
2017-10-01T08:51:50.677Z,4840
2017-10-01T08:52:31.222Z,6456
2017-10-01T08:53:11.695Z,7776
2017-10-01T08:53:52.228Z,7040
2017-10-01T08:54:32.770Z,6088
2017-10-01T08:55:13.299Z,5184
2017-10-01T08:55:53.824Z,5164
2017-10-01T08:56:34.325Z,7436
2017-10-01T08:57:14.915Z,10936
2017-10-01T08:57:55.477Z,19168
2017-10-01T08:58:36.009Z,30496
2017-10-01T08:59:16.916Z,38208
2017-10-01T08:59:57.759Z,36672
2017-10-01T09:00:39.875Z,37056
2017-10-01T09:01:20.369Z,37472
2017-10-01T09:02:00.893Z,38048
2017-10-01T09:02:41.408Z,39424
2017-10-01T09:03:23.397Z,40288
2017-10-01T09:05:37.969Z,41664
2017-10-01T09:06:18.473Z,40704
2017-10-01T09:06:59.003Z,40480
2017-10-01T09:07:39.551Z,40896
2017-10-01T09:08:20.087Z,41600
2017-10-01T09:09:00.725Z,41600
2017-10-01T09:09:41.212Z,41216
2017-10-01T09:10:21.724Z,41440
2017-10-01T09:11:02.385Z,42144
2017-10-01T09:11:42.936Z,42368
2017-10-01T09:12:23.459Z,43168
2017-10-01T09:13:03.981Z,43232
2017-10-01T09:13:44.521Z,42976
2017-10-01T09:14:25.105Z,42272
2017-10-01T09:15:05.942Z,42880
2017-10-01T09:17:26.430Z,41632
2017-10-01T09:18:07.098Z,41472
2017-10-01T09:18:47.672Z,41120
2017-10-01T09:19:28.906Z,41856
2017-10-01T09:20:11.344Z,43200
2017-10-01T09:20:54.010Z,42784
2017-10-01T09:21:35.764Z,42528
2017-10-01T09:22:17.806Z,43360
2017-10-01T09:22:59.927Z,43744
2017-10-01T09:23:40.906Z,43200
2017-10-01T09:24:21.453Z,43744
2017-10-01T09:25:02.155Z,44832
2017-10-01T09:25:42.789Z,44160
2017-10-01T09:26:23.372Z,43296
2017-10-01T09:27:04.041Z,43296
2017-10-01T09:27:44.648Z,43584
2017-10-01T09:28:25.161Z,43872
2017-10-01T09:29:05.702Z,43520
2017-10-01T09:29:46.234Z,43136
2017-10-01T09:30:26.867Z,42720
2017-10-01T09:31:07.484Z,42816
2017-10-01T09:31:48.164Z,44672
2017-10-01T09:32:28.683Z,45504
2017-10-01T09:33:09.293Z,45184
2017-10-01T09:33:49.786Z,44544
2017-10-01T09:34:30.324Z,44000
2017-10-01T09:35:10.865Z,42240
2017-10-01T09:35:51.370Z,42112
2017-10-01T09:36:31.882Z,42816
2017-10-01T09:37:12.581Z,42912
2017-10-01T09:37:53.291Z,42208
2017-10-01T09:38:33.808Z,41248
2017-10-01T09:39:14.479Z,42080